Thunder radar more information blitzortung!


Radar de pluja more information rain snow radar


Visita la nostra xarxa de llocs de meteo:

Template documentation
and downloads

And another site



No particular awareness of the weather is required.    There are no Weather-warnings

Pagina Historial Weather Underground text

Diari Resum Juny 1, 2016 Unitats:  Mètric    Imperial   Tant
« Previous Dia
SegĂźent Dia »
Diari Setmana Mensual Anual Personalitzada
  Maxima: Minima: Media:
Temperatura: -17.8 °C -10.7 °C -6.9 °C
Punt de rosada: -17.8 °C -13.8 °C -12.7 °C
Humitat: Humidity % 32 % 52 %
Wind Speed: 0 km/h 0 km/h 14.2 km/h
RĂ fegues de vent: 0 km/h - -
Vent:- - ESE
Pression baro: 0 hPa 34361.1 hPa -
Precipitacions: 0 mm    
Historical Graphs
 
 
Dades de taula per Juny 1, 2016
Temps Temperatura Punt de rosada Pression baro Vent Wind Speed RĂ fegues de vent Humitat Rainfall Rate (Hourly)
-17.8 °C -17.8 °C 0 hPa Calm     Humidity % 0 mm
00:00 -8.6 °C -11.6 °C 34567.7 hPa NNE 6.3 km/h 6.3 km/h 70 % 0 mm
00:15 -10.1 °C -13.2 °C 34496.6 hPa WSW 5.1 km/h 7.7 km/h 69 % 0 mm
02:05 -10.7 °C -13.8 °C 34533.8 hPa Calm   7.7 km/h 68 % 0 mm
02:15 -10.4 °C -13.6 °C 34533.8 hPa NNE 2.6 km/h 5.1 km/h 68 % 0 mm
02:25 -10.4 °C -13.6 °C 34533.8 hPa Calm   5.1 km/h 68 % 0 mm
02:35 -10.1 °C -13.4 °C 34533.8 hPa NE 2.6 km/h 7.7 km/h 67 % 0 mm
02:45 -10 °C -13.5 °C 34533.8 hPa ENE 5.1 km/h 7.7 km/h 66 % 0 mm
02:55 -9.9 °C -13.4 °C 34533.8 hPa NE 2.6 km/h 10.3 km/h 66 % 0 mm
03:05 -9.7 °C -13.2 °C 34533.8 hPa NNE 2.6 km/h 5.1 km/h 66 % 0 mm
03:15 -9.4 °C -13.2 °C 34533.8 hPa NE 2.6 km/h 5.1 km/h 64 % 0 mm
03:25 -9.3 °C -13.1 °C 34496.6 hPa ENE 5.1 km/h 7.7 km/h 64 % 0 mm
03:35 -9.2 °C -13.1 °C 34533.8 hPa ENE 5.1 km/h 7.7 km/h 63 % 0 mm
03:45 -9.1 °C -13.1 °C 34533.8 hPa ENE 2.6 km/h 10.3 km/h 62 % 0 mm
03:55 -8.8 °C -13 °C 34533.8 hPa ENE 2.6 km/h 7.7 km/h 61 % 0 mm
04:05 -8.7 °C -13 °C 34533.8 hPa NNE 2.6 km/h 10.3 km/h 60 % 0 mm
04:15 -8.5 °C -12.9 °C 34533.8 hPa WNW 5.1 km/h 10.3 km/h 59 % 0 mm
04:25 -8.3 °C -13.2 °C 34533.8 hPa WSW 5.1 km/h 15.6 km/h 56 % 0 mm
04:35 -8.1 °C -13.2 °C 34533.8 hPa WSW 2.6 km/h 15.6 km/h 55 % 0 mm
04:45 -7.8 °C -13.1 °C 34533.8 hPa West 5.1 km/h 12.9 km/h 54 % 0 mm
04:55 -7.8 °C -13.3 °C 34496.6 hPa West 5.1 km/h 7.7 km/h 52 % 0 mm
05:05 -7.7 °C -13.2 °C 34496.6 hPa WSW 5.1 km/h 15.6 km/h 52 % 0 mm
05:15 -7.3 °C -12.9 °C 34496.6 hPa WNW 2.6 km/h 10.3 km/h 52 % 0 mm
05:25 -7.2 °C -13.2 °C 34496.6 hPa WNW 7.7 km/h 12.9 km/h 50 % 0 mm
05:35 -7 °C -12.9 °C 34496.6 hPa West 5.1 km/h 10.3 km/h 50 % 0 mm
10:36 -7 °C -12.9 °C 34496.6 hPa ENE 9 km/h 9 km/h 50 % 0 mm
10:41 -7 °C -12.9 °C 34496.6 hPa SSE 6 km/h   50 % 0 mm
10:46 -6.6 °C -12.7 °C 34496.6 hPa WSW 9 km/h 9 km/h 49 % 0 mm
10:51 -6.7 °C -12.8 °C 34496.6 hPa NW 11.9 km/h 11.9 km/h 49 % 0 mm
10:56 -6.2 °C -12.4 °C 34496.6 hPa NNW 6.3 km/h 6.3 km/h 49 % 0 mm
11:01 -6.1 °C -12.4 °C 34496.6 hPa NE 8.5 km/h 8.5 km/h 48 % 0 mm
11:06 -6.4 °C -12.6 °C 34496.6 hPa ENE 9 km/h 9 km/h 49 % 0 mm
11:11 -6.4 °C -12.6 °C 34496.6 hPa East 9 km/h 9 km/h 49 % 0 mm
11:16 -6.3 °C -12.4 °C 34496.6 hPa ESE 11.9 km/h 11.9 km/h 49 % 0 mm
11:21 -6.1 °C -12.4 °C 34462.7 hPa ENE 9 km/h 9 km/h 48 % 0 mm
11:26 -6.1 °C -12.4 °C 34462.7 hPa ENE 11.6 km/h 11.6 km/h 48 % 0 mm
11:31 -5.9 °C -12.3 °C 34496.6 hPa ESE 12.7 km/h 12.7 km/h 48 % 0 mm
11:36 -5.8 °C -12.5 °C 34496.6 hPa ESE 11.9 km/h 11.9 km/h 46 % 0 mm
11:41 -5.6 °C -12.3 °C 34496.6 hPa WNW 15 km/h 15 km/h 46 % 0 mm
11:46 -5.4 °C -12.4 °C 34496.6 hPa NW 15 km/h 15 km/h 45 % 0 mm
11:51 -5.4 °C -12.4 °C 34496.6 hPa West 9 km/h 9 km/h 45 % 0 mm
11:56 -5.3 °C -12.1 °C 34496.6 hPa WSW 15 km/h 15 km/h 46 % 0 mm
12:01 -5.1 °C -12.1 °C 34462.7 hPa NNE 9 km/h 9 km/h 45 % 0 mm
12:06 -4.8 °C -11.8 °C 34462.7 hPa SW 6.3 km/h 6.3 km/h 45 % 0 mm
12:11 -5.1 °C -12.4 °C 34462.7 hPa East 15 km/h 15 km/h 43 % 0 mm
12:16 -4.9 °C -12.7 °C 34462.7 hPa SW 15.6 km/h 15.6 km/h 41 % 0 mm
12:21 -5 °C -12.7 °C 34462.7 hPa SW 17.9 km/h 17.9 km/h 41 % 0 mm
12:26 -4.9 °C -12.9 °C 34462.7 hPa WNW 15 km/h 15 km/h 40 % 0 mm
12:36 -4.7 °C -12.7 °C 34462.7 hPa WNW 11.9 km/h 11.9 km/h 40 % 0 mm
12:42 -4.6 °C -12.6 °C 34462.7 hPa South 6 km/h 6 km/h 40 % 0 mm
12:46 -4.6 °C -12.6 °C 34462.7 hPa SW 9 km/h 9 km/h 40 % 0 mm
12:51 -4.4 °C -12.4 °C 34462.7 hPa NNE 9 km/h 9 km/h 40 % 0 mm
12:56 -4.3 °C -12.6 °C 34462.7 hPa SW 15 km/h 15 km/h 39 % 0 mm
13:01 -4.3 °C -12.6 °C 34462.7 hPa WSW 7.6 km/h 7.6 km/h 39 % 0 mm
13:06 -4.3 °C -12.6 °C 34462.7 hPa SSE 11.9 km/h 11.9 km/h 39 % 0 mm
13:11 -4.1 °C -12.8 °C 34462.7 hPa NNE 11.9 km/h 11.9 km/h 37 % 0 mm
13:16 -3.9 °C -12.8 °C 34462.7 hPa NE 9 km/h 9 km/h 36 % 0 mm
13:21 -3.9 °C -12.8 °C 34462.7 hPa NE 15.3 km/h 15.3 km/h 36 % 0 mm
13:26 -4.2 °C -12.9 °C 34462.7 hPa North 9 km/h 9 km/h 37 % 0 mm
13:31 -4.2 °C -13.1 °C 34462.7 hPa ENE 6 km/h 6.3 km/h 36 % 0 mm
13:36 -3.8 °C -12.7 °C 34462.7 hPa SW 9 km/h 9 km/h 36 % 0 mm
13:41 -3.9 °C -12.9 °C 34462.7 hPa ENE 11.9 km/h 11.9 km/h 36 % 0 mm
13:46 -4.1 °C -13 °C 34462.7 hPa East 9.8 km/h 9.8 km/h 36 % 0 mm
13:51 -4.1 °C -13 °C 34462.7 hPa ESE 11.9 km/h 11.9 km/h 36 % 0 mm
13:56 -4.1 °C -13 °C 34462.7 hPa WSW 11.9 km/h 11.9 km/h 36 % 0 mm
14:01 -4.1 °C -13 °C 34462.7 hPa South 9.3 km/h 9.3 km/h 36 % 0 mm
14:06 -3.9 °C -13.3 °C 34462.7 hPa SW 9 km/h 9 km/h 34 % 0 mm
14:11 -3.9 °C -13.3 °C 34462.7 hPa WSW 6.8 km/h 6.8 km/h 34 % 0 mm
14:16 -3.3 °C -13 °C 34428.8 hPa WSW 14 km/h 14 km/h 33 % 0 mm
14:21 -3.4 °C -13.4 °C 34428.8 hPa ESE 11.9 km/h 11.9 km/h 32 % 0 mm
14:26 -3.6 °C -13.1 °C 34428.8 hPa NNE 26.9 km/h 26.9 km/h 34 % 0 mm
14:31 -4 °C -12.9 °C 34395 hPa ESE 20.9 km/h 20.9 km/h 36 % 0 mm
14:36 -4.1 °C -12.8 °C 34395 hPa East 26.9 km/h 26.9 km/h 37 % 0 mm
14:41 -4.2 °C -12.9 °C 34395 hPa ESE 23.8 km/h 23.8 km/h 37 % 0 mm
14:46 -4.1 °C -12.8 °C 34395 hPa ESE 26.9 km/h 26.9 km/h 37 % 0 mm
14:51 -4.2 °C -12.7 °C 34395 hPa ENE 29.8 km/h 29.8 km/h 38 % 0 mm
14:56 -3.9 °C -12.4 °C 34395 hPa ESE 9 km/h 9.8 km/h 38 % 0 mm
15:01 -4.1 °C -12.6 °C 34395 hPa SE 26.9 km/h 26.9 km/h 38 % 0 mm
15:06 -4.2 °C -12.7 °C 34395 hPa ESE 29.8 km/h 29.8 km/h 38 % 0 mm
15:11 -4.2 °C -12.4 °C 34395 hPa ESE 25.9 km/h 25.9 km/h 39 % 0 mm
15:16 -4.6 °C -12.8 °C 34395 hPa ESE 26.4 km/h 26.4 km/h 39 % 0 mm
15:21 -4.7 °C -12.9 °C 34395 hPa East 23.8 km/h 23.8 km/h 39 % 0 mm
15:31 -4.8 °C -12.8 °C 34395 hPa ESE 25.4 km/h 25.4 km/h 40 % 0 mm
15:36 -4.8 °C -12.8 °C 34395 hPa ESE 31.4 km/h 31.4 km/h 40 % 0 mm
15:41 -4.9 °C -12.9 °C 34395 hPa ESE 38.8 km/h 38.8 km/h 40 % 0 mm
15:47 -5 °C -12.9 °C 34395 hPa ESE 33.6 km/h 33.6 km/h 40 % 0 mm
15:52 -4.9 °C -12.9 °C 34395 hPa ENE 23.8 km/h 23.8 km/h 40 % 0 mm
15:57 -4.9 °C -12.9 °C 34395 hPa ESE 32.8 km/h 32.8 km/h 40 % 0 mm
16:02 -5.1 °C -12.8 °C 34361.1 hPa ESE 29.5 km/h 29.5 km/h 41 % 0 mm
16:07 -5.1 °C -12.9 °C 34361.1 hPa ESE 32.8 km/h 32.8 km/h 41 % 0 mm
16:12 -5.1 °C -12.8 °C 34361.1 hPa ESE 31.9 km/h 31.9 km/h 41 % 0 mm
16:17 -5.3 °C -13 °C 34361.1 hPa ESE 38.8 km/h 38.8 km/h 41 % 0 mm
16:22 -5.4 °C -13.1 °C 34361.1 hPa East 32.8 km/h 32.8 km/h 41 % 0 mm
16:27 -5.4 °C -12.9 °C 34361.1 hPa ENE 32.8 km/h 32.8 km/h 42 % 0 mm
16:32 -5.4 °C -12.9 °C 34361.1 hPa ENE 35.7 km/h 35.7 km/h 42 % 0 mm
16:37 -5.4 °C -12.9 °C 34361.1 hPa ENE 17.9 km/h 17.9 km/h 42 % 0 mm
16:42 -5.3 °C -12.9 °C 34361.1 hPa ESE 29.8 km/h 29.8 km/h 42 % 0 mm
16:47 -5.2 °C -12.7 °C 34361.1 hPa ENE 27.7 km/h 27.7 km/h 42 % 0 mm
16:52 -5.2 °C -12.7 °C 34361.1 hPa ESE 26.9 km/h 26.9 km/h 42 % 0 mm
16:57 -5.1 °C -12.7 °C 34361.1 hPa ESE 20.9 km/h 20.9 km/h 42 % 0 mm
17:02 -5.1 °C -12.6 °C 34361.1 hPa ESE 20.9 km/h 20.9 km/h 42 % 0 mm
17:07 -5.1 °C -12.6 °C 34361.1 hPa East 29.8 km/h 29.8 km/h 42 % 0 mm
17:12 -5.1 °C -12.7 °C 34361.1 hPa NE 32.8 km/h 32.8 km/h 42 % 0 mm
17:17 -5.1 °C -12.7 °C 34361.1 hPa NNE 29.8 km/h 29.8 km/h 42 % 0 mm
17:22 -5.2 °C -12.7 °C 34361.1 hPa ENE 26.4 km/h 26.4 km/h 42 % 0 mm
17:27 -5.2 °C -12.7 °C 34361.1 hPa East 23.8 km/h 23.8 km/h 42 % 0 mm
17:32 -5.1 °C -12.6 °C 34361.1 hPa ESE 15 km/h 15 km/h 42 % 0 mm
17:37 -5.2 °C -12.7 °C 34361.1 hPa SE 23.8 km/h 23.8 km/h 42 % 0 mm
17:42 -5.3 °C -12.8 °C 34361.1 hPa ESE 32.8 km/h 32.8 km/h 42 % 0 mm
17:47 -5.3 °C -12.8 °C 34361.1 hPa ESE 31.4 km/h 31.4 km/h 42 % 0 mm
17:57 -5.2 °C -12.7 °C 34361.1 hPa ESE 26.9 km/h 26.9 km/h 42 % 0 mm
18:02 -5.3 °C -12.8 °C 34361.1 hPa ESE 20.9 km/h 20.9 km/h 42 % 0 mm
18:07 -5.2 °C -12.7 °C 34361.1 hPa ESE 26.9 km/h 26.9 km/h 42 % 0 mm
18:12 -5.3 °C -12.9 °C 34361.1 hPa ENE 20.9 km/h 20.9 km/h 42 % 0 mm
18:17 -5.4 °C -12.9 °C 34361.1 hPa ESE 15.6 km/h 15.6 km/h 42 % 0 mm
18:22 -5.4 °C -12.7 °C 34361.1 hPa East 20.9 km/h 20.9 km/h 43 % 0 mm
18:27 -5.5 °C -12.8 °C 34361.1 hPa East 26.9 km/h 26.9 km/h 43 % 0 mm
18:32 -5.6 °C -12.9 °C 34361.1 hPa North 17.9 km/h 17.9 km/h 43 % 0 mm
18:37 -5.7 °C -12.9 °C 34361.1 hPa East 20.9 km/h 20.9 km/h 43 % 0 mm
18:42 -5.8 °C -13.1 °C 34361.1 hPa East 32.8 km/h 32.8 km/h 43 % 0 mm
18:47 -5.8 °C -13.1 °C 34361.1 hPa ESE 17.9 km/h 17.9 km/h 43 % 0 mm
18:52 -5.8 °C -13.1 °C 34361.1 hPa ESE 20.9 km/h 20.9 km/h 43 % 0 mm
18:57 -5.8 °C -12.9 °C 34361.1 hPa ESE 20.9 km/h 20.9 km/h 44 % 0 mm
19:02 -6 °C -13.1 °C 34361.1 hPa ENE 26.9 km/h 26.9 km/h 44 % 0 mm
19:07 -6.1 °C -13.1 °C 34361.1 hPa NE 23.8 km/h 23.8 km/h 44 % 0 mm
19:12 -6.1 °C -13.2 °C 34361.1 hPa ESE 20.9 km/h 20.9 km/h 44 % 0 mm
19:15 -9.1 °C -12.2 °C 34462.7 hPa ENE 2.6 km/h 5.1 km/h 69 % 0 mm
19:22 -6.2 °C -12.9 °C 34395 hPa SE 26.9 km/h 26.9 km/h 46 % 0 mm
19:25 -9.1 °C -12.2 °C 34462.7 hPa NE 5.1 km/h 5.1 km/h 69 % 0 mm
19:32 -6.3 °C -13 °C 34361.1 hPa ESE 28.2 km/h 28.2 km/h 46 % 0 mm
19:35 -9.1 °C -12.3 °C 34462.7 hPa NE 2.6 km/h 5.1 km/h 69 % 0 mm
19:37 -6.4 °C -12.9 °C 34361.1 hPa East 25.9 km/h 25.9 km/h 47 % 0 mm
19:42 -6.5 °C -13 °C 34361.1 hPa ENE 27.2 km/h 27.2 km/h 47 % 0 mm
19:45 -9.2 °C -12.3 °C 34462.7 hPa NE 5.1 km/h 7.7 km/h 69 % 0 mm
19:47 -6.6 °C -12.9 °C 34361.1 hPa ENE 26.4 km/h 26.4 km/h 48 % 0 mm
19:52 -6.6 °C -12.9 °C 34361.1 hPa ESE 17.9 km/h 17.9 km/h 48 % 0 mm
19:55 -9.2 °C -12.4 °C 34462.7 hPa NE 2.6 km/h 5.1 km/h 69 % 0 mm
19:57 -6.6 °C -12.9 °C 34361.1 hPa South 15 km/h 15.3 km/h 48 % 0 mm
20:02 -6.7 °C -12.8 °C 34395 hPa ESE 20.9 km/h 20.9 km/h 49 % 0 mm
20:05 -9.3 °C -12.3 °C 34462.7 hPa NE 2.6 km/h 5.1 km/h 70 % 0 mm
20:07 -6.7 °C -12.8 °C 34395 hPa East 17.9 km/h 17.9 km/h 49 % 0 mm
20:12 -6.8 °C -12.7 °C 34395 hPa ESE 23.8 km/h 23.8 km/h 50 % 0 mm
20:15 -9.3 °C -12.3 °C 34462.7 hPa Calm   2.6 km/h 70 % 0 mm
20:17 -6.9 °C -12.8 °C 34395 hPa ENE 26.9 km/h 26.9 km/h 50 % 0 mm
20:22 -7.1 °C -12.8 °C 34395 hPa ESE 23.8 km/h 23.8 km/h 51 % 0 mm
20:25 -9.4 °C -12.3 °C 34462.7 hPa NNE 2.6 km/h 5.1 km/h 71 % 0 mm
20:27 -7.2 °C -12.9 °C 34395 hPa East 20.9 km/h 20.9 km/h 51 % 0 mm
20:32 -7.2 °C -12.8 °C 34395 hPa East 17.9 km/h 17.9 km/h 52 % 0 mm
20:35 -9.4 °C -12.3 °C 34462.7 hPa Calm   5.1 km/h 71 % 0 mm
20:37 -7.3 °C -12.6 °C 34395 hPa ENE 26.9 km/h 26.9 km/h 54 % 0 mm
20:42 -7.4 °C -12.7 °C 34395 hPa ESE 23.8 km/h 23.8 km/h 54 % 0 mm
20:45 -9.6 °C -12.4 °C 34462.7 hPa NE 2.6 km/h 5.1 km/h 71 % 0 mm
20:55 -9.6 °C -12.5 °C 34428.8 hPa NE 2.6 km/h 5.1 km/h 71 % 0 mm
21:02 -7.7 °C -12.6 °C 34361.1 hPa ESE 20.9 km/h 20.9 km/h 57 % 0 mm
21:07 -7.8 °C -12.6 °C 34361.1 hPa East 23.8 km/h 23.8 km/h 57 % 0 mm
21:12 -7.8 °C -12.5 °C 34361.1 hPa East 23.8 km/h 23.8 km/h 58 % 0 mm
21:15 -9.7 °C -12.5 °C 34462.7 hPa Calm     72 % 0 mm
21:17 -7.9 °C -12.6 °C 34395 hPa ESE 17.9 km/h 17.9 km/h 58 % 0 mm
21:22 -7.9 °C -12.4 °C 34395 hPa ESE 9 km/h 15.6 km/h 59 % 0 mm
21:25 -9.9 °C -12.8 °C 34462.7 hPa Calm   2.6 km/h 71 % 0 mm
21:33 -8.1 °C -12.6 °C 34395 hPa East 23.8 km/h 23.8 km/h 59 % 0 mm
21:35 -10.1 °C -12.9 °C 34462.7 hPa West 2.6 km/h 5.1 km/h 71 % 0 mm
21:38 -8.1 °C -12.4 °C 34395 hPa ESE 23.8 km/h 23.8 km/h 60 % 0 mm
21:43 -8.2 °C -12.6 °C 34395 hPa ENE 15 km/h 15 km/h 60 % 0 mm
21:45 -10.1 °C -12.7 °C 34462.7 hPa Calm   5.1 km/h 73 % 0 mm
21:48 -8.2 °C -12.4 °C 34395 hPa ESE 23.8 km/h 23.8 km/h 61 % 0 mm
21:53 -8.3 °C -12.5 °C 34395 hPa ESE 20.3 km/h 20.3 km/h 61 % 0 mm
21:55 -10.2 °C -12.6 °C 34462.7 hPa Calm     75 % 0 mm
21:58 -8.3 °C -12.5 °C 34395 hPa ESE 9.3 km/h 9.3 km/h 61 % 0 mm
22:03 -8.3 °C -12.6 °C 34395 hPa East 9 km/h 9 km/h 61 % 0 mm
22:05 -10.2 °C -12.7 °C 34428.8 hPa Calm     75 % 0 mm
22:08 -8.3 °C -12.6 °C 34395 hPa ESE 11.9 km/h 11.9 km/h 61 % 0 mm
22:13 -8.4 °C -12.3 °C 34395 hPa East 15 km/h 15 km/h 63 % 0 mm
22:15 -10.3 °C -12.7 °C 34428.8 hPa Calm     75 % 0 mm
22:18 -8.4 °C -12.4 °C 34428.8 hPa ESE 11.9 km/h 12.2 km/h 63 % 0 mm
22:23 -8.5 °C -12.4 °C 34428.8 hPa ESE 15 km/h 15 km/h 63 % 0 mm
22:25 -10.3 °C -12.9 °C 34462.7 hPa SW 2.6 km/h 5.1 km/h 73 % 0 mm
22:28 -8.5 °C -12.3 °C 34428.8 hPa ESE 16.1 km/h 16.1 km/h 64 % 0 mm
22:33 -8.6 °C -12.3 °C 34428.8 hPa ESE 11.9 km/h 11.9 km/h 64 % 0 mm
22:35 -10.3 °C -12.7 °C 34462.7 hPa WSW 2.6 km/h 5.1 km/h 75 % 0 mm
22:38 -8.6 °C -12.3 °C 34428.8 hPa ESE 11.9 km/h 11.9 km/h 64 % 0 mm
22:43 -8.6 °C -12.4 °C 34428.8 hPa ENE 9 km/h 9.3 km/h 64 % 0 mm
22:45 -10.3 °C -12.7 °C 34462.7 hPa WSW 2.6 km/h 5.1 km/h 75 % 0 mm
22:48 -8.6 °C -12.3 °C 34428.8 hPa ENE 11.9 km/h 11.9 km/h 65 % 0 mm
22:53 -8.7 °C -12.3 °C 34428.8 hPa ESE 9 km/h 9 km/h 65 % 0 mm
22:55 -10.3 °C -12.7 °C 34428.8 hPa WSW 2.6 km/h 5.1 km/h 75 % 0 mm
22:58 -8.7 °C -12.3 °C 34428.8 hPa East 11.9 km/h 11.9 km/h 65 % 0 mm
23:03 -8.7 °C -12.4 °C 34462.7 hPa East 9 km/h 9 km/h 65 % 0 mm
23:05 -10.3 °C -12.6 °C 34462.7 hPa Calm   2.6 km/h 77 % 0 mm
23:08 -8.8 °C -12.3 °C 34462.7 hPa ENE 6.3 km/h 6.3 km/h 66 % 0 mm
23:13 -8.8 °C -12.4 °C 34462.7 hPa NE 3.1 km/h 5.6 km/h 66 % 0 mm
23:15 -10.4 °C -12.6 °C 34462.7 hPa Calm     77 % 0 mm
23:18 -8.9 °C -12.4 °C 34462.7 hPa NNE 6 km/h 6 km/h 66 % 0 mm
23:23 -8.9 °C -12.3 °C 34462.7 hPa ESE 9 km/h 9 km/h 67 % 0 mm
23:25 -10.4 °C -12.6 °C 34462.7 hPa WSW 2.6 km/h 2.6 km/h 77 % 0 mm
23:28 -8.9 °C -12.3 °C 34462.7 hPa East 4.2 km/h 5.1 km/h 67 % 0 mm
23:33 -8.9 °C -12.3 °C 34462.7 hPa East 4.2 km/h 5.1 km/h 67 % 0 mm
23:35 -10.5 °C -12.7 °C 34462.7 hPa Calm   5.1 km/h 77 % 0 mm
23:38 -8.8 °C -12.1 °C 34462.7 hPa ESE 6 km/h 6.8 km/h 68 % 0 mm
23:43 -8.8 °C -12.1 °C 34462.7 hPa ESE 6 km/h 6.8 km/h 68 % 0 mm
23:45 -10.6 °C -12.6 °C 34462.7 hPa Calm     78 % 0 mm
23:48 -8.9 °C -12.2 °C 34462.7 hPa ESE 6 km/h 6.8 km/h 68 % 0 mm
23:53 -8.9 °C -12.2 °C 34462.7 hPa ESE 6 km/h 6.8 km/h 68 % 0 mm
23:55 -10.6 °C -12.6 °C 34428.8 hPa Calm     78 % 0 mm
23:58 -8.9 °C -12.2 °C 34462.7 hPa ENE 6 km/h 6 km/h 68 % 0 mm
Meteo Sesrovires
Elogis d' Weather Underground - 1.75 mb

Guio original per  Jim McMurry - jmcmurry@mwt.net Adaptat per a la plantilla per  Wim van der Kuil - Leuven-Template.eu

Trobareu la nostra informacio del temps tambe a:

Weather Underground

AWEKAS